»·PEaware :: N189Q KSBP-KSMX

N189Q :: KSBP-KSMX

FLIGHT INFORMATION

Flight Status: Arrived
Operator: Privately registered:
United States
More flights under this callsign
Pilot: Eric W. (42607)
Aircraft: CESSNA 172 SKYHAWK
(C172)
More flights by this aircraft type
Origin: KSBP San Luis Co Regl
United States
Destination: KSMX Santa Maria Pub/Capt Hancock
United States
More flights between these airports :: More routes between these airports
Route:
File this flight plan on PilotEdge
Remarks: CAT-04 Rating
Altitude:
(Current/Filed)
6,000ft
Speed:
(Current/Filed)
150kts
Departed: 24-Jan-23 06:42 PM
Arrived: 24-Jan-23 07:31 PM
Distance/Time
Traveled:
22nm/0:49
Distance/Time
To Go:
Arrived

Flight Plot

Page will automatically refresh every two minutes.


Map Options




Map Legend


Flown Route
Filed Route
Departure Airport
Arrival Airport
Navaid (VOR, NDB)
Fix

Horizontal Profiles

Position Reports

Time Latitude Longitude Heading Altitude Ground
Speed
24-Jan-23 18:31 35.234208 -120.632870 306 216ft 0kts
24-Jan-23 18:32 35.234208 -120.632870 306 216ft 0kts
24-Jan-23 18:33 35.234208 -120.632870 306 216ft 0kts
24-Jan-23 18:34 35.234208 -120.632870 306 216ft 0kts
24-Jan-23 18:35 35.234208 -120.632870 306 216ft 0kts
24-Jan-23 18:36 35.234208 -120.632870 306 216ft 0kts
24-Jan-23 18:37 35.234223 -120.632894 306 216ft 0kts
24-Jan-23 18:38 35.234448 -120.633395 283 216ft 4kts
24-Jan-23 18:39 35.234155 -120.633900 212 216ft 0kts
24-Jan-23 18:40 35.233907 -120.634099 213 216ft 11kts
24-Jan-23 18:41 35.240168 -120.650394 222 948ft 68kts
24-Jan-23 18:42 35.216402 -120.642802 133 1737ft 102kts
24-Jan-23 18:43 35.196567 -120.625773 147 2654ft 93kts
24-Jan-23 18:44 35.168922 -120.607080 149 2777ft 121kts
24-Jan-23 18:45 35.140183 -120.587613 149 2983ft 121kts
24-Jan-23 18:46 35.109853 -120.566902 149 2983ft 126kts
24-Jan-23 18:47 35.079759 -120.562616 244 2979ft 119kts
24-Jan-23 18:48 35.097006 -120.573484 60 2979ft 117kts
24-Jan-23 18:49 35.077633 -120.544230 155 2982ft 122kts
24-Jan-23 18:50 35.047897 -120.525444 155 2982ft 119kts
24-Jan-23 18:51 35.018423 -120.516499 225 2978ft 112kts
24-Jan-23 18:52 35.034591 -120.538655 351 2982ft 120kts
24-Jan-23 18:53 35.064827 -120.522836 49 2977ft 125kts
24-Jan-23 18:54 35.051479 -120.489918 141 2982ft 120kts
24-Jan-23 18:55 35.021581 -120.473505 160 2982ft 118kts
24-Jan-23 18:56 35.009046 -120.492991 313 2981ft 116kts
24-Jan-23 18:57 35.034777 -120.517319 319 2982ft 117kts
24-Jan-23 18:58 35.055689 -120.497541 67 2979ft 124kts
24-Jan-23 18:59 35.081668 -120.500141 276 2979ft 112kts
24-Jan-23 19:00 35.057447 -120.508121 161 2982ft 118kts
24-Jan-23 19:01 35.028115 -120.504855 238 2978ft 112kts
24-Jan-23 19:02 35.047269 -120.518297 49 2978ft 124kts
24-Jan-23 19:03 35.031781 -120.490670 161 2982ft 117kts
24-Jan-23 19:04 35.014941 -120.514690 284 2978ft 112kts
24-Jan-23 19:05 35.038435 -120.509990 87 2979ft 122kts
24-Jan-23 19:06 35.023538 -120.474063 138 2978ft 119kts
24-Jan-23 19:07 35.010212 -120.491492 314 2978ft 115kts
24-Jan-23 19:08 35.042615 -120.494309 12 2978ft 121kts
24-Jan-23 19:09 35.039244 -120.465256 159 2982ft 116kts
24-Jan-23 19:10 35.009258 -120.450705 160 2982ft 116kts
24-Jan-23 19:11 34.988531 -120.462149 289 2978ft 113kts
24-Jan-23 19:12 35.016198 -120.457512 39 2981ft 123kts
24-Jan-23 19:13 35.039142 -120.435388 325 2979ft 116kts
24-Jan-23 19:14 35.043663 -120.471322 266 2982ft 112kts
24-Jan-23 19:15 35.042501 -120.509689 266 2936ft 112kts
24-Jan-23 19:16 35.052261 -120.542947 325 2936ft 116kts
24-Jan-23 19:17 35.079839 -120.539439 76 2933ft 124kts
24-Jan-23 19:18 35.062472 -120.506240 156 2931ft 118kts
24-Jan-23 19:19 35.031241 -120.509756 188 2936ft 114kts
24-Jan-23 19:20 35.000056 -120.502616 164 2653ft 115kts
24-Jan-23 19:21 34.969012 -120.489058 161 2098ft 121kts
24-Jan-23 19:22 34.937963 -120.475143 161 1546ft 112kts
24-Jan-23 19:23 34.915623 -120.474598 232 1515ft 61kts
24-Jan-23 19:24 34.903101 -120.491144 227 1399ft 72kts
24-Jan-23 19:25 34.886794 -120.498377 162 1421ft 70kts
24-Jan-23 19:26 34.872911 -120.484920 128 1582ft 79kts
24-Jan-23 19:27 34.867463 -120.458354 82 2098ft 90kts
24-Jan-23 19:28 34.870277 -120.427590 21 1738ft 74kts
24-Jan-23 19:29 34.885520 -120.436872 309 653ft 60kts
24-Jan-23 19:30 34.894669 -120.448096 311 265ft 26kts
24-Jan-23 19:31 34.898574 -120.450268 0 265ft 14kts
24-Jan-23 19:32 34.900165 -120.451017 345 265ft 0kts

Navigation Log

Ident Type
Flight plan parsing failed, navigation log unavailable